Stedman, North Carolina
Current Conditions -  °F | °C
As of 2:53 AM on Tuesday 27 Jan 2015 (Local Time) from KFAY Reporting Station
Overcast Overcast  
Wind Chill: 35°   Ceiling: 2700
Heat Index: 42°   Visibility: 10mi
Dew Point: 31°   Wind: 14mph
Humidity: 65%   Direction: 310°NW
Pressure: 29.71"   Gusts: NA
Location:  35.01°N, 78.69°W
Report Text: KFAY 270753Z AUTO 31012KT 10SM OVC027 06/M01 A2971 RMK AO2 SLP055 T00561006
Loading
Personal Weather Stations






























Interactive Weather Map New forecast layout! Learn more

10-Day Weather Forecast

Advertisements
Track Severe Weather on mobile